Time;durP1;ratioP1;P1;durP2;ratioP2;P2;SDS_P1;SDS_P2;PMS_P1;PMS_P2;Temp;Humidity;BMP_temperature;BMP_pressure;BME280_temperature;BME280_humidity;BME280_pressure;Samples;Min_cycle;Max_cycle;Signal;HPM_P1;HPM_P2
2021/05/18 00:01:14;;;;;;;5.88;4.75;;;9.80;99.90;;;;;;5052227;28;20029;-80
2021/05/18 00:03:40;;;;;;;10.45;6.45;;;9.80;99.90;;;;;;5052104;28;20021;-80
2021/05/18 00:06:06;;;;;;;6.25;4.30;;;9.80;99.90;;;;;;5052304;28;20043;-80
2021/05/18 00:08:35;;;;;;;7.78;5.15;;;9.80;99.90;;;;;;5052097;28;20038;-80
2021/05/18 00:13:51;;;;;;;9.10;5.65;;;9.80;99.90;;;;;;5053604;28;20032;-80
2021/05/18 00:16:18;;;;;;;13.75;7.10;;;9.80;99.90;;;;;;5053261;28;20056;-80
2021/05/18 00:18:44;;;;;;;14.77;8.45;;;9.80;99.90;;;;;;5053150;28;20040;-80
2021/05/18 00:21:10;;;;;;;5.10;4.28;;;9.80;99.90;;;;;;5051947;28;20390;-80
2021/05/18 00:23:36;;;;;;;6.03;4.07;;;9.80;99.90;;;;;;5051788;28;20025;-80
2021/05/18 00:26:04;;;;;;;10.63;6.43;;;9.70;99.90;;;;;;5052953;28;20024;-80
2021/05/18 00:28:29;;;;;;;7.10;4.15;;;9.70;99.90;;;;;;5052900;28;20471;-80
2021/05/18 00:30:55;;;;;;;8.10;5.35;;;9.70;99.90;;;;;;5053371;28;20033;-80
2021/05/18 00:33:22;;;;;;;4.95;4.20;;;9.70;99.90;;;;;;5053033;28;20025;-80
2021/05/18 00:35:49;;;;;;;5.03;4.53;;;9.70;99.90;;;;;;5051621;28;20029;-80
2021/05/18 00:38:17;;;;;;;8.98;6.32;;;9.70;99.90;;;;;;5051584;28;20017;-80
2021/05/18 00:40:44;;;;;;;6.45;5.03;;;9.70;99.90;;;;;;5052926;28;20021;-80
2021/05/18 00:43:11;;;;;;;6.20;4.90;;;9.60;99.90;;;;;;5052834;28;20021;-80
2021/05/18 00:45:49;;;;;;;5.15;4.47;;;9.70;99.90;;;;;;5052822;28;20055;-80
2021/05/18 00:48:18;;;;;;;5.68;4.75;;;9.60;99.90;;;;;;5051541;28;20021;-80
2021/05/18 00:50:51;;;;;;;5.45;4.07;;;9.60;99.90;;;;;;5051548;28;20036;-80
2021/05/18 00:53:18;;;;;;;4.80;4.07;;;9.60;99.90;;;;;;5052805;28;20482;-80
2021/05/18 00:55:51;;;;;;;6.72;4.75;;;9.60;99.90;;;;;;5052681;28;20033;-80
2021/05/18 00:58:26;;;;;;;7.40;5.18;;;9.60;99.90;;;;;;5051429;28;20025;-81
2021/05/18 01:00:59;;;;;;;4.85;3.85;;;9.60;99.90;;;;;;5053066;28;20021;-80
2021/05/18 01:03:26;;;;;;;6.38;5.07;;;9.60;99.90;;;;;;5051423;28;20112;-80
2021/05/18 01:08:37;;;;;;;11.45;7.90;;;9.50;99.90;;;;;;5052852;28;20039;-80
2021/05/18 01:11:05;;;;;;;5.55;4.18;;;9.60;99.90;;;;;;5051349;28;20066;-80
2021/05/18 01:13:33;;;;;;;5.68;4.53;;;9.60;99.90;;;;;;5052482;28;20390;-80
2021/05/18 01:15:59;;;;;;;5.07;4.43;;;9.50;99.90;;;;;;5051273;28;20063;-80
2021/05/18 01:18:25;;;;;;;6.80;4.57;;;9.50;99.90;;;;;;5051229;28;20047;-80
2021/05/18 01:20:56;;;;;;;6.63;3.88;;;9.50;99.90;;;;;;5051237;28;20053;-79
2021/05/18 01:23:22;;;;;;;6.20;5.07;;;9.50;99.90;;;;;;5052503;28;20087;-80
2021/05/18 01:25:47;;;;;;;6.10;4.32;;;9.50;99.90;;;;;;5052487;28;20471;-80
2021/05/18 01:28:13;;;;;;;5.80;4.47;;;9.40;99.90;;;;;;5052411;28;20083;-80
2021/05/18 01:30:39;;;;;;;4.35;3.95;;;9.50;99.90;;;;;;5052430;28;20017;-80
2021/05/18 01:33:04;;;;;;;6.15;3.90;;;9.40;99.90;;;;;;5052368;28;20390;-80
2021/05/18 01:35:30;;;;;;;7.07;4.45;;;9.40;99.90;;;;;;5051011;28;20529;-80
2021/05/18 01:37:56;;;;;;;6.07;3.88;;;9.40;99.90;;;;;;5052649;28;20028;-80
2021/05/18 01:42:52;;;;;;;4.28;3.88;;;9.30;99.90;;;;;;5056125;28;20037;-80
2021/05/18 01:45:24;;;;;;;3.55;3.25;;;9.30;99.90;;;;;;5056155;28;20163;-80
2021/05/18 01:47:53;;;;;;;5.63;3.83;;;9.30;99.90;;;;;;5054782;28;20025;-80
2021/05/18 01:50:25;;;;;;;3.67;2.97;;;9.30;99.90;;;;;;5054830;28;20273;-80
2021/05/18 01:52:52;;;;;;;3.50;2.97;;;9.30;99.90;;;;;;5054729;28;20100;-80
2021/05/18 01:58:04;;;;;;;5.38;4.82;;;9.30;99.90;;;;;;5056117;28;20033;-80
2021/05/18 02:00:34;;;;;;;3.45;3.15;;;9.40;99.90;;;;;;5055840;28;20031;-80
2021/05/18 02:03:00;;;;;;;3.88;3.47;;;9.30;99.90;;;;;;5054402;28;20029;-80
2021/05/18 02:05:29;;;;;;;3.80;3.42;;;9.30;99.90;;;;;;5054481;28;20040;-80
2021/05/18 02:07:57;;;;;;;4.25;3.90;;;9.30;99.90;;;;;;5055740;28;20021;-80
2021/05/18 02:10:23;;;;;;;4.88;4.05;;;9.30;99.90;;;;;;5055660;28;20032;-80
2021/05/18 02:12:49;;;;;;;3.85;3.35;;;9.30;99.90;;;;;;5054259;28;20029;-79
2021/05/18 02:15:31;;;;;;;9.10;5.38;;;9.30;99.90;;;;;;5054227;28;20033;-80
2021/05/18 02:18:11;;;;;;;8.25;5.85;;;9.30;99.90;;;;;;5055553;28;20025;-79
2021/05/18 02:20:41;;;;;;;4.47;3.35;;;9.30;99.90;;;;;;5054186;28;20029;-80
2021/05/18 02:25:51;;;;;;;14.80;8.60;;;9.30;99.90;;;;;;5055471;28;20110;-80
2021/05/18 02:28:16;;;;;;;10.75;6.85;;;9.30;99.90;;;;;;5055276;28;20471;-80
2021/05/18 02:30:42;;;;;;;5.22;4.45;;;9.30;99.90;;;;;;5053893;28;20032;-80
2021/05/18 02:33:08;;;;;;;14.40;8.48;;;9.30;99.90;;;;;;5053843;28;20478;-80
2021/05/18 02:35:33;;;;;;;15.77;8.48;;;9.30;99.90;;;;;;5055098;28;20029;-80
2021/05/18 02:37:59;;;;;;;11.98;7.93;;;9.30;99.90;;;;;;5055038;28;20021;-80
2021/05/18 02:40:29;;;;;;;6.13;4.68;;;9.30;99.90;;;;;;5055099;28;20032;-80
2021/05/18 02:42:54;;;;;;;9.75;6.28;;;9.40;99.90;;;;;;5055030;28;20017;-80
2021/05/18 02:45:30;;;;;;;10.20;6.53;;;9.30;99.90;;;;;;5053743;28;20036;-80
2021/05/18 02:50:41;;;;;;;7.28;5.93;;;9.30;99.90;;;;;;5055230;28;20121;-80
2021/05/18 02:53:07;;;;;;;7.80;6.57;;;9.30;99.90;;;;;;5053568;28;20108;-80
2021/05/18 02:57:58;;;;;;;6.47;5.13;;;9.30;99.90;;;;;;5054730;28;20054;-80
2021/05/18 03:00:25;;;;;;;7.32;4.72;;;9.30;99.90;;;;;;5053628;28;20487;-80
2021/05/18 03:02:51;;;;;;;7.38;5.10;;;9.30;99.90;;;;;;5053338;28;20406;-80
2021/05/18 03:05:20;;;;;;;7.00;5.50;;;9.30;99.90;;;;;;5054662;28;20029;-80
2021/05/18 03:07:46;;;;;;;6.03;4.57;;;9.30;99.90;;;;;;5054533;28;20083;-80
2021/05/18 03:10:14;;;;;;;5.82;4.18;;;9.30;99.90;;;;;;5053264;28;20409;-80
2021/05/18 03:12:40;;;;;;;4.40;4.00;;;9.30;99.90;;;;;;5053141;28;20078;-80
2021/05/18 03:15:06;;;;;;;5.80;4.28;;;9.30;99.90;;;;;;5054384;28;20049;-80
2021/05/18 03:17:33;;;;;;;4.55;4.15;;;9.30;99.90;;;;;;5054225;28;20044;-80
2021/05/18 03:19:59;;;;;;;4.30;3.83;;;9.30;99.90;;;;;;5053074;28;20021;-80
2021/05/18 03:22:25;;;;;;;5.00;4.10;;;9.30;99.90;;;;;;5052975;28;20429;-80
2021/05/18 03:24:50;;;;;;;4.15;3.65;;;9.30;99.90;;;;;;5054322;28;20033;-80
2021/05/18 03:27:16;;;;;;;5.32;3.78;;;9.30;99.90;;;;;;5054053;28;20063;-80
2021/05/18 03:29:44;;;;;;;5.20;4.07;;;9.30;99.90;;;;;;5052890;28;20108;-80
2021/05/18 03:34:54;;;;;;;5.03;4.38;;;9.30;99.90;;;;;;5054261;28;20087;-80
2021/05/18 03:37:25;;;;;;;4.75;4.30;;;9.30;99.90;;;;;;5054002;28;20020;-80
2021/05/18 03:39:55;;;;;;;4.72;3.33;;;9.40;99.90;;;;;;5064253;28;20450;-80
2021/05/18 03:52:51;;;;;;;4.55;4.00;;;9.30;99.90;;;;;;5073894;28;20075;-80
2021/05/18 04:17:14;;;;;;;4.25;3.85;;;9.40;99.90;;;;;;5073232;28;20547;-80
2021/05/18 04:19:51;;;;;;;5.45;3.75;;;9.40;99.90;;;;;;5073244;28;20099;-80
2021/05/18 04:52:01;;;;;;;4.18;3.72;;;9.60;99.90;;;;;;5072878;28;20021;-80
2021/05/18 05:00:05;;;;;;;6.55;4.28;;;9.70;99.90;;;;;;5073123;28;20123;-80
2021/05/18 05:15:39;;;;;;;4.82;4.43;;;9.60;99.90;;;;;;5054716;28;20056;-81
2021/05/18 05:18:05;;;;;;;3.83;3.33;;;9.70;99.90;;;;;;5054114;28;20029;-80
2021/05/18 05:20:31;;;;;;;4.38;3.80;;;9.70;99.90;;;;;;5053161;28;20017;-80
2021/05/18 05:22:58;;;;;;;6.72;5.55;;;9.60;99.90;;;;;;5053087;28;20509;-80
2021/05/18 05:25:24;;;;;;;11.00;6.85;;;9.60;99.90;;;;;;5054656;28;20025;-81
2021/05/18 05:27:50;;;;;;;6.07;4.60;;;9.60;99.90;;;;;;5053091;28;20498;-80
2021/05/18 05:30:16;;;;;;;4.82;4.32;;;9.60;99.90;;;;;;5060562;28;20028;-80
2021/05/18 05:32:42;;;;;;;3.55;3.25;;;9.60;99.90;;;;;;5070824;28;20421;-81
2021/05/18 05:35:08;;;;;;;5.18;4.35;;;9.60;99.90;;;;;;5059737;28;20043;-79
2021/05/18 05:37:34;;;;;;;3.08;2.88;;;9.60;99.90;;;;;;5066238;28;20024;-80
2021/05/18 05:40:00;;;;;;;4.43;3.75;;;9.60;99.90;;;;;;5076255;28;20021;-79
2021/05/18 05:42:26;;;;;;;3.30;3.00;;;9.70;99.90;;;;;;5074788;28;20112;-80
2021/05/18 05:44:52;;;;;;;2.95;2.60;;;9.60;99.90;;;;;;5076231;28;20026;-80
2021/05/18 05:47:18;;;;;;;2.95;2.67;;;9.60;99.90;;;;;;5075805;28;20103;-79
2021/05/18 05:49:43;;;;;;;4.32;3.92;;;9.70;99.90;;;;;;5074617;28;20531;-81
2021/05/18 05:52:18;;;;;;;6.20;4.82;;;9.70;99.90;;;;;;5075744;28;20028;-79
2021/05/18 05:54:44;;;;;;;6.90;4.85;;;9.60;99.90;;;;;;5074854;28;20037;-80
2021/05/18 05:57:09;;;;;;;10.68;6.75;;;9.70;99.90;;;;;;5073178;28;20359;-79
2021/05/18 05:59:35;;;;;;;7.53;5.00;;;9.70;99.90;;;;;;5072752;28;20024;-79
2021/05/18 06:02:03;;;;;;;18.08;10.52;;;9.80;99.90;;;;;;5074390;28;20028;-80
2021/05/18 06:04:29;;;;;;;18.50;9.93;;;9.70;99.90;;;;;;5073577;28;20017;-80
2021/05/18 06:06:55;;;;;;;18.88;10.35;;;9.70;99.90;;;;;;5072449;28;20201;-80
2021/05/18 06:09:22;;;;;;;14.23;8.60;;;9.80;99.90;;;;;;5069957;28;20033;-80
2021/05/18 06:42:06;;;;;;;8.30;5.47;;;9.80;99.90;;;;;;5073461;28;20086;-81
2021/05/18 06:50:01;;;;;;;11.10;6.68;;;9.80;99.90;;;;;;5066730;28;20074;-80
2021/05/18 06:52:26;;;;;;;7.68;6.07;;;9.80;99.90;;;;;;5069314;28;20066;-81
2021/05/18 06:54:52;;;;;;;5.90;4.15;;;9.90;99.90;;;;;;5071634;28;20424;-80
2021/05/18 06:57:18;;;;;;;6.82;5.50;;;10.00;99.90;;;;;;5070947;28;20024;-80
2021/05/18 07:02:27;;;;;;;4.32;3.17;;;10.00;99.90;;;;;;5073823;28;20090;-80
2021/05/18 07:04:55;;;;;;;5.90;4.20;;;10.00;99.90;;;;;;5048911;28;642583;-81
2021/05/18 07:07:26;;;;;;;3.33;2.90;;;9.90;99.90;;;;;;5073405;28;20017;-80
2021/05/18 07:09:51;;;;;;;5.15;4.38;;;9.90;99.90;;;;;;5072164;28;20036;-81
2021/05/18 07:12:17;;;;;;;4.38;2.78;;;10.00;99.90;;;;;;5071985;28;20028;-81
2021/05/18 07:14:43;;;;;;;2.70;2.50;;;10.00;99.90;;;;;;5071859;28;20059;-81
2021/05/18 07:17:08;;;;;;;4.10;3.53;;;10.10;99.90;;;;;;5071916;28;20070;-81
2021/05/18 07:19:34;;;;;;;4.78;3.75;;;10.10;99.90;;;;;;5072468;28;20021;-80
2021/05/18 07:22:00;;;;;;;10.95;6.18;;;10.20;99.90;;;;;;5072996;28;20557;-80
2021/05/18 07:24:29;;;;;;;5.10;4.13;;;10.40;99.90;;;;;;5073041;28;20417;-81
2021/05/18 07:26:56;;;;;;;8.98;5.00;;;10.30;99.90;;;;;;5072945;28;20017;-81
2021/05/18 07:29:22;;;;;;;11.73;6.82;;;10.40;99.90;;;;;;5074104;28;20095;-81
2021/05/18 07:31:48;;;;;;;7.60;3.25;;;10.30;99.90;;;;;;5072869;28;20484;-81
2021/05/18 07:34:13;;;;;;;2.97;2.60;;;10.30;99.90;;;;;;5073965;28;20021;-81
2021/05/18 07:36:39;;;;;;;8.68;5.10;;;10.30;99.90;;;;;;5072016;28;20073;-81
2021/05/18 07:39:06;;;;;;;1.95;1.85;;;10.30;99.90;;;;;;5072622;28;20162;-81
2021/05/18 07:41:32;;;;;;;2.40;2.20;;;10.20;99.90;;;;;;5072631;28;20013;-81
2021/05/18 07:44:00;;;;;;;3.17;2.85;;;10.30;99.90;;;;;;5072607;28;20040;-81
2021/05/18 07:46:26;;;;;;;3.60;2.90;;;10.40;99.90;;;;;;5073838;28;20096;-81
2021/05/18 07:59:25;;;;;;;2.88;2.47;;;10.80;99.90;;;;;;5073848;28;20067;-81
2021/05/18 08:07:21;;;;;;;2.80;2.17;;;10.80;99.90;;;;;;5073369;28;20116;-81
2021/05/18 08:09:51;;;;;;;4.63;2.67;;;10.80;99.90;;;;;;5072092;28;20032;-81
2021/05/18 08:12:17;;;;;;;4.03;3.22;;;10.80;99.90;;;;;;5073403;28;20024;-81
2021/05/18 08:14:53;;;;;;;2.67;2.35;;;10.80;99.90;;;;;;5071972;28;20367;-81
2021/05/18 10:22:11;;;;;;;12.88;9.25;;;11.50;99.90;;;;;;5079288;28;20053;-80
2021/05/18 10:38:40;;;;;;;10.07;8.32;;;11.80;99.90;;;;;;5075210;28;20394;-82
2021/05/18 10:41:05;;;;;;;10.93;8.95;;;12.00;99.90;;;;;;5075209;28;20024;-83
2021/05/18 10:43:34;;;;;;;11.00;9.38;;;12.10;99.90;;;;;;5074989;28;20481;-83
2021/05/18 10:46:07;;;;;;;9.50;8.55;;;12.10;99.90;;;;;;5072523;28;20494;-83
2021/05/18 10:48:40;;;;;;;9.82;8.85;;;12.10;99.90;;;;;;5074433;28;20021;-82
2021/05/18 10:51:31;;;;;;;9.77;8.75;;;12.10;99.90;;;;;;5073746;28;20021;-82
2021/05/18 10:54:11;;;;;;;9.80;8.80;;;12.10;99.90;;;;;;5070871;28;20086;-82
2021/05/18 10:57:01;;;;;;;10.82;9.32;;;12.10;99.90;;;;;;5074822;28;20131;-82
2021/05/18 10:59:28;;;;;;;10.00;8.40;;;12.40;99.90;;;;;;5070213;28;20032;-82
2021/05/18 11:02:16;;;;;;;11.88;8.93;;;12.50;99.90;;;;;;5072736;28;20016;-80
2021/05/18 11:04:48;;;;;;;10.43;9.13;;;12.60;99.90;;;;;;5073960;28;20056;-80
2021/05/18 11:07:17;;;;;;;14.27;9.38;;;12.60;99.90;;;;;;5074161;28;20021;-80
2021/05/18 11:09:43;;;;;;;10.75;9.20;;;12.70;99.90;;;;;;5073660;28;20478;-80
2021/05/18 11:12:20;;;;;;;9.13;8.32;;;12.50;99.90;;;;;;5073713;28;20039;-79
2021/05/18 11:14:47;;;;;;;10.55;8.75;;;12.30;99.90;;;;;;5072352;28;20063;-79
2021/05/18 11:17:32;;;;;;;9.40;8.50;;;12.30;99.90;;;;;;5073852;28;20017;-80
2021/05/18 11:20:10;;;;;;;9.25;8.35;;;12.40;99.90;;;;;;5074192;28;20046;-79
2021/05/18 11:25:31;;;;;;;9.55;8.60;;;12.60;99.90;;;;;;5074503;28;20071;-79
2021/05/18 11:28:08;;;;;;;8.75;7.88;;;12.50;99.90;;;;;;5072967;28;20070;-79
2021/05/18 11:30:34;;;;;;;9.25;8.40;;;12.60;99.90;;;;;;5072918;28;20042;-79
2021/05/18 11:33:00;;;;;;;8.05;7.25;;;12.60;99.90;;;;;;5074125;28;20541;-80
2021/05/18 11:35:26;;;;;;;8.00;7.25;;;12.70;99.90;;;;;;5074001;28;20107;-79
2021/05/18 11:38:18;;;;;;;8.90;7.55;;;12.50;99.90;;;;;;5072711;28;20382;-79
2021/05/18 11:40:46;;;;;;;9.43;8.40;;;12.60;99.90;;;;;;5071624;28;20387;-79
2021/05/18 11:43:13;;;;;;;9.43;8.52;;;12.60;99.90;;;;;;5073863;28;20039;-79
2021/05/18 11:45:39;;;;;;;9.00;8.10;;;12.70;99.90;;;;;;5073838;28;20021;-80
2021/05/18 11:48:12;;;;;;;10.35;9.32;;;12.80;99.90;;;;;;5072526;28;20025;-79
2021/05/18 11:50:38;;;;;;;9.60;7.80;;;13.00;99.90;;;;;;5072807;28;20021;-79
2021/05/18 11:53:04;;;;;;;8.77;7.97;;;13.00;99.90;;;;;;5073709;28;20020;-79
2021/05/18 11:55:31;;;;;;;8.27;7.53;;;13.00;99.90;;;;;;5073631;28;20033;-79
2021/05/18 11:57:58;;;;;;;9.10;8.20;;;12.90;99.90;;;;;;5072390;28;20047;-79
2021/05/18 12:00:33;;;;;;;7.18;6.47;;;13.00;99.90;;;;;;5073581;28;20545;-79
2021/05/18 12:03:00;;;;;;;7.93;7.03;;;13.00;99.90;;;;;;5072345;28;20134;-79
2021/05/18 12:05:26;;;;;;;8.10;7.30;;;13.00;99.90;;;;;;5072022;28;20036;-79
2021/05/18 12:07:52;;;;;;;8.43;7.10;;;13.00;99.90;;;;;;5068462;28;20028;-79
2021/05/18 12:10:33;;;;;;;9.57;7.78;;;12.90;99.90;;;;;;5072921;28;20390;-79
2021/05/18 12:12:59;;;;;;;7.85;7.15;;;13.20;99.90;;;;;;5071606;28;20024;-79
2021/05/18 12:15:25;;;;;;;6.68;6.05;;;13.40;99.90;;;;;;5071994;28;20032;-78
2021/05/18 12:17:55;;;;;;;7.90;6.22;;;13.40;99.90;;;;;;5073376;28;20824;-79
2021/05/18 12:20:21;;;;;;;6.50;5.97;;;13.30;99.90;;;;;;5073264;28;20055;-79
2021/05/18 12:22:48;;;;;;;7.15;6.45;;;13.50;99.90;;;;;;5072860;28;20024;-79
2021/05/18 12:25:34;;;;;;;6.20;5.60;;;13.60;99.90;;;;;;5071978;28;20505;-79
2021/05/18 12:28:11;;;;;;;5.43;4.90;;;13.60;99.90;;;;;;5068905;28;20482;-79
2021/05/18 12:30:42;;;;;;;6.50;5.88;;;13.50;99.90;;;;;;5070071;28;20394;-79
2021/05/18 12:33:08;;;;;;;5.32;4.82;;;13.60;99.90;;;;;;5072969;28;20017;-79
2021/05/18 12:35:34;;;;;;;9.45;5.93;;;13.70;99.90;;;;;;5071019;28;20547;-79
2021/05/18 12:38:13;;;;;;;4.93;4.28;;;13.70;99.90;;;;;;5072692;28;20035;-79
2021/05/18 12:40:43;;;;;;;5.15;4.68;;;13.70;96.50;;;;;;5071419;28;20021;-79
2021/05/18 12:43:15;;;;;;;8.20;4.88;;;13.60;92.50;;;;;;5067348;28;20411;-79
2021/05/18 12:45:42;;;;;;;5.30;4.32;;;13.50;97.40;;;;;;5072235;28;20495;-78
2021/05/18 12:48:09;;;;;;;13.88;8.20;;;13.50;98.30;;;;;;5071958;28;20024;-78
2021/05/18 12:50:37;;;;;;;5.53;4.82;;;13.70;99.20;;;;;;5069742;28;20587;-78
2021/05/18 12:53:06;;;;;;;4.10;3.80;;;13.80;94.10;;;;;;5071536;28;20037;-79
2021/05/18 12:55:31;;;;;;;3.70;3.40;;;13.90;94.20;;;;;;5071882;28;20493;-78
2021/05/18 12:58:06;;;;;;;5.50;4.00;;;14.00;95.10;;;;;;5071302;28;20059;-78
2021/05/18 13:00:39;;;;;;;5.03;3.58;;;14.30;94.30;;;;;;5070575;28;20048;-79
2021/05/18 13:03:08;;;;;;;4.13;3.00;;;14.40;92.70;;;;;;5067468;28;20028;-79
2021/05/18 13:05:34;;;;;;;3.25;2.95;;;14.30;86.00;;;;;;5068306;28;20040;-79
2021/05/18 13:08:15;;;;;;;3.30;3.00;;;14.30;86.80;;;;;;5069448;28;20474;-80
2021/05/18 13:13:13;;;;;;;4.07;2.28;;;14.50;84.50;;;;;;5072103;28;20029;-79
2021/05/18 13:15:39;;;;;;;2.72;2.53;;;14.50;84.10;;;;;;5070907;28;20496;-78
2021/05/18 13:18:07;;;;;;;2.65;2.45;;;14.50;87.20;;;;;;5072312;28;20031;-78
2021/05/18 13:20:52;;;;;;;3.08;2.38;;;14.50;85.60;;;;;;5069987;28;20017;-78
2021/05/18 13:23:28;;;;;;;2.50;2.30;;;14.60;85.40;;;;;;5067689;28;20028;-79
2021/05/18 13:28:38;;;;;;;2.50;2.08;;;14.60;78.60;;;;;;5070686;28;20067;-78
2021/05/18 13:31:05;;;;;;;1.63;1.50;;;14.60;76.90;;;;;;5068908;28;20462;-79
2021/05/18 13:33:31;;;;;;;3.38;2.63;;;14.80;73.60;;;;;;5070263;28;20029;-79
2021/05/18 13:35:57;;;;;;;1.42;1.33;;;14.60;71.80;;;;;;5075139;28;20116;-78
2021/05/18 13:38:23;;;;;;;1.38;1.30;;;14.60;70.50;;;;;;5076207;28;20099;-78
2021/05/18 13:40:49;;;;;;;1.63;1.52;;;14.80;71.00;;;;;;5072759;28;20025;-79
2021/05/18 13:43:16;;;;;;;2.63;1.90;;;14.80;73.10;;;;;;5074295;28;20078;-77
2021/05/18 13:45:42;;;;;;;3.65;2.42;;;15.00;72.60;;;;;;5072817;28;20037;-79
2021/05/18 13:48:08;;;;;;;1.55;1.45;;;15.30;73.30;;;;;;5070315;28;20016;-79
2021/05/18 13:50:34;;;;;;;1.50;1.40;;;15.40;70.10;;;;;;5071420;28;20023;-78
2021/05/18 13:53:00;;;;;;;3.30;2.35;;;15.50;71.50;;;;;;5074992;28;20112;-79
2021/05/18 13:55:26;;;;;;;1.88;1.77;;;15.30;70.80;;;;;;5074213;28;20127;-78
2021/05/18 13:57:52;;;;;;;1.75;1.65;;;15.30;72.90;;;;;;5074210;28;20504;-79
2021/05/18 14:00:19;;;;;;;2.15;1.70;;;15.20;72.30;;;;;;5075893;28;20025;-79
2021/05/18 14:02:47;;;;;;;2.40;1.70;;;15.00;70.80;;;;;;5074486;28;20020;-79
2021/05/18 14:05:16;;;;;;;1.63;1.52;;;15.00;72.80;;;;;;5074424;28;20536;-78
2021/05/18 14:08:13;;;;;;;2.13;1.75;;;15.00;74.60;;;;;;5056543;28;20021;-78
2021/05/18 14:10:39;;;;;;;2.08;1.67;;;14.90;74.50;;;;;;5055540;28;20025;-81
2021/05/18 14:13:05;;;;;;;3.50;1.73;;;14.90;76.80;;;;;;5053744;28;20513;-80
2021/05/18 14:15:31;;;;;;;2.15;1.55;;;15.10;76.10;;;;;;5054780;28;20033;-80
2021/05/18 14:17:57;;;;;;;2.97;1.63;;;15.20;75.20;;;;;;5052518;28;20025;-81
2021/05/18 14:20:22;;;;;;;1.95;1.70;;;15.40;74.40;;;;;;5050786;28;20112;-80
2021/05/18 14:22:49;;;;;;;4.53;1.70;;;15.30;72.60;;;;;;5053457;28;20021;-81
2021/05/18 14:25:14;;;;;;;3.22;1.88;;;15.30;72.40;;;;;;5054237;28;20459;-82
2021/05/18 14:27:41;;;;;;;2.15;1.77;;;15.50;73.80;;;;;;5054566;28;20071;-80
2021/05/18 14:30:10;;;;;;;6.93;1.85;;;15.40;74.70;;;;;;5054397;28;20025;-81
2021/05/18 14:32:36;;;;;;;2.30;2.03;;;15.60;76.90;;;;;;5054752;28;20074;-81
2021/05/18 14:35:07;;;;;;;5.80;3.95;;;15.50;72.00;;;;;;5055010;28;20494;-81
2021/05/18 14:37:32;;;;;;;2.38;2.15;;;15.50;72.80;;;;;;5054878;28;20023;-81
2021/05/18 14:45:14;;;;;;;9.00;4.05;;;15.70;73.10;;;;;;5054662;28;20028;-81
2021/05/18 14:55:54;;;;;;;18.70;7.53;;;16.20;66.90;;;;;;5074695;28;20398;-81
2021/05/18 14:58:21;;;;;;;20.42;7.22;;;16.10;69.20;;;;;;5065323;28;20029;-81
2021/05/18 15:00:46;;;;;;;2.63;1.58;;;16.10;70.10;;;;;;5061339;28;20467;-81
2021/05/18 15:03:12;;;;;;;2.92;1.50;;;16.20;67.30;;;;;;5062669;28;20028;-80
2021/05/18 15:05:39;;;;;;;2.05;1.73;;;16.30;67.30;;;;;;5060376;28;20112;-81
2021/05/18 15:08:06;;;;;;;2.55;1.80;;;16.60;68.50;;;;;;5063188;28;20017;-81
2021/05/18 15:10:32;;;;;;;6.53;2.63;;;16.70;68.10;;;;;;5062786;28;20023;-81
2021/05/18 15:12:58;;;;;;;2.45;1.35;;;16.60;66.10;;;;;;5063415;28;20097;-81
2021/05/18 15:15:24;;;;;;;12.48;6.22;;;16.40;65.00;;;;;;5060143;28;20060;-81
2021/05/18 15:17:51;;;;;;;6.93;2.22;;;16.40;67.40;;;;;;5063104;28;21087;-81
2021/05/18 15:20:17;;;;;;;7.07;3.47;;;16.30;69.00;;;;;;5061265;28;20017;-80
2021/05/18 15:22:43;;;;;;;2.78;2.05;;;16.10;71.90;;;;;;5063518;28;20389;-80
2021/05/18 15:25:10;;;;;;;2.53;1.55;;;15.90;72.00;;;;;;5068486;28;20074;-79
2021/05/18 15:27:36;;;;;;;4.40;2.25;;;15.70;75.30;;;;;;5071723;28;20035;-79
2021/05/18 15:30:03;;;;;;;8.38;4.03;;;15.60;77.60;;;;;;5069237;28;20042;-79
2021/05/18 15:32:29;;;;;;;6.05;3.33;;;15.40;79.70;;;;;;5069730;28;20038;-79
2021/05/18 15:34:55;;;;;;;6.90;3.55;;;15.20;81.70;;;;;;5062850;28;20425;-79
2021/05/18 15:37:20;;;;;;;5.75;1.85;;;14.90;82.90;;;;;;5059827;28;20016;-79
2021/05/18 15:39:46;;;;;;;4.40;1.70;;;14.50;87.60;;;;;;5060396;28;20047;-79
2021/05/18 15:42:12;;;;;;;2.25;1.50;;;13.70;91.60;;;;;;5051740;28;20043;-80
2021/05/18 15:44:38;;;;;;;8.27;4.57;;;13.00;99.70;;;;;;5052472;28;20117;-81
2021/05/18 15:47:04;;;;;;;4.80;2.78;;;12.80;99.90;;;;;;5052137;28;20051;-82
2021/05/18 15:49:31;;;;;;;8.43;4.20;;;12.60;99.90;;;;;;5052054;28;20021;-81
2021/05/18 15:51:57;;;;;;;4.93;3.33;;;12.60;99.90;;;;;;5053347;28;20032;-83
2021/05/18 15:54:23;;;;;;;6.50;2.70;;;12.40;99.90;;;;;;5052997;28;20021;-82
2021/05/18 15:56:49;;;;;;;7.55;4.07;;;12.20;99.90;;;;;;5051621;28;20074;-83
2021/05/18 15:59:15;;;;;;;4.32;2.63;;;12.20;99.90;;;;;;5053372;28;20017;-81
2021/05/18 16:01:41;;;;;;;4.22;2.00;;;12.00;99.90;;;;;;5053452;28;20021;-80
2021/05/18 16:04:08;;;;;;;5.95;3.75;;;11.90;99.90;;;;;;5053729;28;20036;-81
2021/05/18 16:06:39;;;;;;;3.38;2.75;;;11.80;99.90;;;;;;5053244;28;20498;-81
2021/05/18 16:09:05;;;;;;;4.43;3.53;;;11.70;99.90;;;;;;5060037;28;20025;-82
2021/05/18 16:11:31;;;;;;;2.30;2.10;;;11.70;99.90;;;;;;5057934;28;20035;-82
2021/05/18 16:13:57;;;;;;;4.50;2.78;;;11.70;99.90;;;;;;5053486;28;20482;-81
2021/05/18 16:16:23;;;;;;;2.70;2.50;;;11.60;99.90;;;;;;5068234;28;20037;-81
2021/05/18 16:18:48;;;;;;;2.88;2.40;;;11.60;99.90;;;;;;5073015;28;20075;-82
2021/05/18 16:21:17;;;;;;;5.88;2.90;;;11.60;99.90;;;;;;5070076;28;20087;-82
2021/05/18 16:23:48;;;;;;;4.40;3.05;;;11.60;99.90;;;;;;5052770;28;20025;-81
2021/05/18 16:26:18;;;;;;;3.53;2.40;;;11.70;99.90;;;;;;5050011;28;20032;-82
2021/05/18 16:28:45;;;;;;;4.05;2.53;;;11.70;99.90;;;;;;5051022;28;20021;-81
2021/05/18 16:31:11;;;;;;;4.72;3.50;;;11.70;99.90;;;;;;5051562;28;20028;-81
2021/05/18 16:33:38;;;;;;;5.22;3.30;;;11.80;99.90;;;;;;5050888;28;20025;-82
2021/05/18 16:36:05;;;;;;;5.13;3.92;;;11.90;99.90;;;;;;5050976;28;20033;-82
2021/05/18 16:38:32;;;;;;;9.82;5.32;;;12.00;99.90;;;;;;5050604;28;20017;-81
2021/05/18 16:40:58;;;;;;;8.60;6.32;;;12.00;99.90;;;;;;5050528;28;20029;-82
2021/05/18 16:43:26;;;;;;;9.68;5.97;;;12.00;99.90;;;;;;5051833;28;20035;-82
2021/05/18 16:45:52;;;;;;;9.00;5.60;;;12.00;99.90;;;;;;5053428;28;20070;-81
2021/05/18 16:48:19;;;;;;;13.27;6.35;;;12.00;99.90;;;;;;5062495;28;20389;-81
2021/05/18 16:50:45;;;;;;;10.05;6.13;;;12.00;99.90;;;;;;5060741;28;20417;-81
2021/05/18 16:53:12;;;;;;;9.75;5.60;;;12.00;99.90;;;;;;5067529;28;20107;-82
2021/05/18 16:55:38;;;;;;;12.52;5.85;;;11.90;99.90;;;;;;5070618;28;20405;-82
2021/05/18 16:58:05;;;;;;;15.10;6.70;;;11.90;99.90;;;;;;5071699;28;20154;-81
2021/05/18 17:00:31;;;;;;;14.75;7.28;;;11.90;99.90;;;;;;5068721;28;20378;-83
2021/05/18 17:02:57;;;;;;;12.98;6.57;;;11.90;99.90;;;;;;5061879;28;20523;-81
2021/05/18 17:05:26;;;;;;;8.77;5.22;;;11.80;99.90;;;;;;5070773;28;20036;-82
2021/05/18 17:07:52;;;;;;;8.02;4.82;;;11.80;99.90;;;;;;5073070;28;20039;-82
2021/05/18 17:10:20;;;;;;;6.80;4.78;;;11.80;99.90;;;;;;5075155;28;20162;-82
2021/05/18 17:12:46;;;;;;;6.60;4.80;;;11.80;99.90;;;;;;5074555;28;20032;-81
2021/05/18 17:15:13;;;;;;;6.68;4.20;;;11.70;99.90;;;;;;5075578;28;20043;-82
2021/05/18 17:17:38;;;;;;;7.03;4.45;;;11.80;99.90;;;;;;5076073;28;20075;-81
2021/05/18 17:20:05;;;;;;;5.80;4.00;;;11.80;99.90;;;;;;5072806;28;20028;-81
2021/05/18 17:22:31;;;;;;;4.50;3.63;;;11.70;99.90;;;;;;5072415;28;20112;-81
2021/05/18 17:24:56;;;;;;;4.82;3.78;;;11.70;99.90;;;;;;5074741;28;20107;-81
2021/05/18 17:27:22;;;;;;;5.57;4.00;;;11.70;99.90;;;;;;5061543;28;20443;-81
2021/05/18 17:29:47;;;;;;;3.92;3.40;;;11.50;99.90;;;;;;5064901;28;20070;-82
2021/05/18 17:32:13;;;;;;;4.97;3.47;;;11.50;99.90;;;;;;5065757;28;20455;-81
2021/05/18 17:34:40;;;;;;;5.22;3.70;;;11.50;99.90;;;;;;5063798;28;20049;-81
2021/05/18 17:37:08;;;;;;;4.75;3.55;;;11.40;99.90;;;;;;5063668;28;20043;-81
2021/05/18 17:39:34;;;;;;;7.57;4.38;;;11.40;99.90;;;;;;5064622;28;20021;-82
2021/05/18 17:42:00;;;;;;;8.40;5.30;;;11.30;99.90;;;;;;5057074;28;20033;-80
2021/05/18 17:44:27;;;;;;;5.95;3.80;;;11.40;99.90;;;;;;5055758;28;20531;-82
2021/05/18 17:46:54;;;;;;;4.25;3.47;;;11.30;99.90;;;;;;5057166;28;20028;-81
2021/05/18 17:49:21;;;;;;;7.70;4.32;;;11.30;99.90;;;;;;5074837;28;20383;-81
2021/05/18 17:51:47;;;;;;;5.22;3.38;;;11.30;99.90;;;;;;5074748;28;20021;-82
2021/05/18 17:54:13;;;;;;;4.28;3.55;;;11.20;99.90;;;;;;5075164;28;20021;-82
2021/05/18 17:56:39;;;;;;;6.28;4.35;;;11.20;99.90;;;;;;5075063;28;20040;-82
2021/05/18 17:59:05;;;;;;;7.68;5.05;;;11.20;99.90;;;;;;5071963;28;20031;-82
2021/05/18 18:01:33;;;;;;;5.10;4.30;;;11.20;99.90;;;;;;5074286;28;20056;-82
2021/05/18 18:03:58;;;;;;;6.03;4.57;;;11.10;99.90;;;;;;5072109;28;20027;-80
2021/05/18 18:06:24;;;;;;;5.28;4.43;;;11.20;99.90;;;;;;5066703;28;20467;-81
2021/05/18 18:08:50;;;;;;;6.85;5.10;;;11.20;99.90;;;;;;5055335;28;20043;-81